Stolt Effort — ZCSP6 — position and weather

sailwx.info

Track history (hours):
 
Tides and Currents Weather Stations Pressure Air Temp Water Temp Dewpoint Dewpoint Depression Visibility Wind Speed Wind Dir Waves Ship Positions

Stolt Effort

Last reported at 2014-Oct-23 20:33 UTC. Time now 2014-Oct-23 21:24 UTC.
Position N 29°37' W 095°01'.

Length 176 m; draft 10.5 m.

Type: Ship (hazmat cat B). MMSI: 319445000.

Date/timePositionNaut miles runAvg speedWind from/ knotsBaromVisibWave heightAir tempDewpointWater temp
2014-Oct-23 20:33N 29°37' W 095°01'0 0.0
2014-Oct-23 19:31N 29°37' W 095°01'0 0.0
2014-Oct-23 18:31N 29°37' W 095°01'0 0.0
2014-Oct-23 17:31N 29°37' W 095°01'0 0.0
2014-Oct-23 16:31N 29°37' W 095°01'0 0.0
2014-Oct-23 15:28N 29°37' W 095°01'0 0.0
2014-Oct-23 14:31N 29°37' W 095°01'0 0.0
2014-Oct-23 13:25N 29°37' W 095°01'0 0.0
2014-Oct-23 12:31N 29°37' W 095°01'0 0.0
2014-Oct-23 11:31N 29°37' W 095°01'0 0.0
2014-Oct-23 10:31N 29°37' W 095°01'0 0.0
2014-Oct-23 09:31N 29°37' W 095°01'0 0.0
2014-Oct-23 08:31N 29°37' W 095°01'0 0.0
2014-Oct-23 07:28N 29°37' W 095°01'0 0.0
2014-Oct-23 06:28N 29°37' W 095°01'0 0.0
2014-Oct-23 05:31N 29°37' W 095°01'0 0.0
2014-Oct-23 04:31N 29°37' W 095°01'0 0.0
2014-Oct-23 03:31N 29°37' W 095°01'0 0.0
2014-Oct-23 02:31N 29°37' W 095°01'0 0.0
2014-Oct-23 01:31N 29°37' W 095°01'0 0.0
2014-Oct-23 00:31N 29°37' W 095°01'0 0.0
2014-Oct-22 23:31N 29°37' W 095°01'0 0.0
2014-Oct-22 22:31N 29°37' W 095°01'0 0.0
2014-Oct-22 21:31N 29°37' W 095°01'0 0.0
2014-Oct-22 20:31N 29°37' W 095°01'0 0.0
2014-Oct-22 19:31N 29°37' W 095°01'0 0.0
2014-Oct-22 18:31N 29°37' W 095°01'0 0.0
2014-Oct-22 17:31N 29°37' W 095°01'0 0.0
2014-Oct-22 16:31N 29°37' W 095°01'0 0.0
2014-Oct-22 15:31N 29°37' W 095°01'0 0.0
2014-Oct-22 14:28N 29°37' W 095°01'0 0.0
2014-Oct-22 13:31N 29°37' W 095°01'0 0.0
2014-Oct-22 12:31N 29°37' W 095°01'0 0.0
2014-Oct-22 11:31N 29°37' W 095°01'0 0.0
2014-Oct-22 10:31N 29°37' W 095°01'0 0.0
2014-Oct-22 09:31N 29°37' W 095°01'0 0.0
2014-Oct-22 08:31N 29°37' W 095°01'0 0.0
2014-Oct-22 07:31N 29°37' W 095°01'0 0.0
2014-Oct-22 06:31N 29°37' W 095°01'0 0.0
2014-Oct-22 05:31N 29°37' W 095°01'0 0.0
2014-Oct-22 04:28N 29°37' W 095°01'0 0.0
2014-Oct-22 03:28N 29°37' W 095°01'0 0.0
2014-Oct-22 02:28N 29°37' W 095°01'0 0.0
2014-Oct-22 01:28N 29°37' W 095°01'3 3.6
2014-Oct-22 00:33N 29°37' W 094°57'9 9.3
2014-Oct-21 23:33N 29°45' W 095°04'6 6.2
2014-Oct-21 22:33N 29°45' W 095°11'5 4.6
2014-Oct-21 21:33N 29°44' W 095°16'1 1.2
2014-Oct-21 20:33N 29°44' W 095°17'8 0.4
2014-Oct-21 01:28N 29°44' W 095°08'0 0.3
2014-Oct-21 00:33N 29°44' W 095°08'0 0.0
2014-Oct-20 23:29N 29°44' W 095°08'0 0.0
2014-Oct-20 22:32N 29°44' W 095°08'0 0.0
2014-Oct-20 21:32N 29°44' W 095°08'0 0.0
2014-Oct-20 20:17N 29°44' W 095°08'0 0.0
2014-Oct-20 19:26N 29°44' W 095°08'0 0.0
2014-Oct-20 18:05N 29°44' W 095°08'0 0.0
2014-Oct-20 17:29N 29°44' W 095°08'0 0.0
2014-Oct-20 16:32N 29°44' W 095°08'0 0.0
2014-Oct-20 15:11N 29°44' W 095°08'0 0.0
2014-Oct-20 14:23N 29°44' W 095°08'0 0.0
2014-Oct-20 13:32N 29°44' W 095°08'0 0.0
2014-Oct-20 12:26N 29°44' W 095°08'0 0.0
2014-Oct-20 11:32N 29°44' W 095°08'0 0.0
2014-Oct-20 10:29N 29°44' W 095°08'2 2.5
2014-Oct-20 09:31N 29°45' W 095°06'9 9.0
2014-Oct-20 08:33N 29°39' W 094°58'1514.6
2014-Oct-20 07:33N 29°26' W 094°50'4 4.0
2014-Oct-20 06:33N 29°23' W 094°51'3 3.1
2014-Oct-20 05:29N 29°22' W 094°55'0 0.0
2014-Oct-18 21:17N 29°22' W 094°55'2 2.7
2014-Oct-18 20:33N 29°23' W 094°53'4 3.7
2014-Oct-18 19:33N 29°24' W 094°49'1312.6
2014-Oct-18 18:33N 29°35' W 094°56'1110.9
2014-Oct-18 17:33N 29°44' W 095°02'6 6.1
2014-Oct-18 16:33N 29°44' W 095°09'5 5.2
2014-Oct-18 15:33N 29°44' W 095°15'  
2014-Oct-15 14:14N 29°44' W 095°17'0 0.0
2014-Oct-15 09:26N 29°44' W 095°17'0 0.0
2014-Oct-15 05:26N 29°44' W 095°17'0 0.0
2014-Oct-14 18:20N 29°44' W 095°17'2 2.8
2014-Oct-14 17:30N 29°43' W 095°14'5 5.7
2014-Oct-14 16:33N 29°44' W 095°08'6 6.2
2014-Oct-14 15:34N 29°43' W 095°01'1212.1
2014-Oct-14 14:33N 29°33' W 094°54'1413.9
2014-Oct-14 13:33N 29°21' W 094°46'  
Track history (hours):
 
Tides and Currents Weather Stations Pressure Air Temp Water Temp Dewpoint Dewpoint Depression Visibility Wind Speed Wind Dir Waves Ship Positions

Stolt Effort

Last reported at 2014-Oct-23 20:33 UTC. Time now 2014-Oct-23 21:24 UTC.
Position N 29°37' W 095°01'.

Length 176 m; draft 10.5 m.

Type: Ship (hazmat cat B). MMSI: 319445000.

Date/timePositionNaut miles runAvg speedWind from/ knotsBaromVisibWave heightAir tempDewpointWater temp
2014-Oct-23 20:33N 29°37' W 095°01'0 0.0
2014-Oct-23 19:31N 29°37' W 095°01'0 0.0
2014-Oct-23 18:31N 29°37' W 095°01'0 0.0
2014-Oct-23 17:31N 29°37' W 095°01'0 0.0
2014-Oct-23 16:31N 29°37' W 095°01'0 0.0
2014-Oct-23 15:28N 29°37' W 095°01'0 0.0
2014-Oct-23 14:31N 29°37' W 095°01'0 0.0
2014-Oct-23 13:25N 29°37' W 095°01'0 0.0
2014-Oct-23 12:31N 29°37' W 095°01'0 0.0
2014-Oct-23 11:31N 29°37' W 095°01'0 0.0
2014-Oct-23 10:31N 29°37' W 095°01'0 0.0
2014-Oct-23 09:31N 29°37' W 095°01'0 0.0
2014-Oct-23 08:31N 29°37' W 095°01'0 0.0
2014-Oct-23 07:28N 29°37' W 095°01'0 0.0
2014-Oct-23 06:28N 29°37' W 095°01'0 0.0
2014-Oct-23 05:31N 29°37' W 095°01'0 0.0
2014-Oct-23 04:31N 29°37' W 095°01'0 0.0
2014-Oct-23 03:31N 29°37' W 095°01'0 0.0
2014-Oct-23 02:31N 29°37' W 095°01'0 0.0
2014-Oct-23 01:31N 29°37' W 095°01'0 0.0
2014-Oct-23 00:31N 29°37' W 095°01'0 0.0
2014-Oct-22 23:31N 29°37' W 095°01'0 0.0
2014-Oct-22 22:31N 29°37' W 095°01'0 0.0
2014-Oct-22 21:31N 29°37' W 095°01'0 0.0
2014-Oct-22 20:31N 29°37' W 095°01'0 0.0
2014-Oct-22 19:31N 29°37' W 095°01'0 0.0
2014-Oct-22 18:31N 29°37' W 095°01'0 0.0
2014-Oct-22 17:31N 29°37' W 095°01'0 0.0
2014-Oct-22 16:31N 29°37' W 095°01'0 0.0
2014-Oct-22 15:31N 29°37' W 095°01'0 0.0
2014-Oct-22 14:28N 29°37' W 095°01'0 0.0
2014-Oct-22 13:31N 29°37' W 095°01'0 0.0
2014-Oct-22 12:31N 29°37' W 095°01'0 0.0
2014-Oct-22 11:31N 29°37' W 095°01'0 0.0
2014-Oct-22 10:31N 29°37' W 095°01'0 0.0
2014-Oct-22 09:31N 29°37' W 095°01'0 0.0
2014-Oct-22 08:31N 29°37' W 095°01'0 0.0
2014-Oct-22 07:31N 29°37' W 095°01'0 0.0
2014-Oct-22 06:31N 29°37' W 095°01'0 0.0
2014-Oct-22 05:31N 29°37' W 095°01'0 0.0
2014-Oct-22 04:28N 29°37' W 095°01'0 0.0
2014-Oct-22 03:28N 29°37' W 095°01'0 0.0
2014-Oct-22 02:28N 29°37' W 095°01'0 0.0
2014-Oct-22 01:28N 29°37' W 095°01'3 3.6
2014-Oct-22 00:33N 29°37' W 094°57'9 9.3
2014-Oct-21 23:33N 29°45' W 095°04'6 6.2
2014-Oct-21 22:33N 29°45' W 095°11'5 4.6
2014-Oct-21 21:33N 29°44' W 095°16'1 1.2
2014-Oct-21 20:33N 29°44' W 095°17'8 0.4
2014-Oct-21 01:28N 29°44' W 095°08'0 0.3
2014-Oct-21 00:33N 29°44' W 095°08'0 0.0
2014-Oct-20 23:29N 29°44' W 095°08'0 0.0
2014-Oct-20 22:32N 29°44' W 095°08'0 0.0
2014-Oct-20 21:32N 29°44' W 095°08'0 0.0
2014-Oct-20 20:17N 29°44' W 095°08'0 0.0
2014-Oct-20 19:26N 29°44' W 095°08'0 0.0
2014-Oct-20 18:05N 29°44' W 095°08'0 0.0
2014-Oct-20 17:29N 29°44' W 095°08'0 0.0
2014-Oct-20 16:32N 29°44' W 095°08'0 0.0
2014-Oct-20 15:11N 29°44' W 095°08'0 0.0
2014-Oct-20 14:23N 29°44' W 095°08'0 0.0
2014-Oct-20 13:32N 29°44' W 095°08'0 0.0
2014-Oct-20 12:26N 29°44' W 095°08'0 0.0
2014-Oct-20 11:32N 29°44' W 095°08'0 0.0
2014-Oct-20 10:29N 29°44' W 095°08'2 2.5
2014-Oct-20 09:31N 29°45' W 095°06'9 9.0
2014-Oct-20 08:33N 29°39' W 094°58'1514.6
2014-Oct-20 07:33N 29°26' W 094°50'4 4.0
2014-Oct-20 06:33N 29°23' W 094°51'3 3.1
2014-Oct-20 05:29N 29°22' W 094°55'0 0.0
2014-Oct-18 21:17N 29°22' W 094°55'2 2.7
2014-Oct-18 20:33N 29°23' W 094°53'4 3.7
2014-Oct-18 19:33N 29°24' W 094°49'1312.6
2014-Oct-18 18:33N 29°35' W 094°56'1110.9
2014-Oct-18 17:33N 29°44' W 095°02'6 6.1
2014-Oct-18 16:33N 29°44' W 095°09'5 5.2
2014-Oct-18 15:33N 29°44' W 095°15'  
2014-Oct-15 14:14N 29°44' W 095°17'0 0.0
2014-Oct-15 09:26N 29°44' W 095°17'0 0.0
2014-Oct-15 05:26N 29°44' W 095°17'0 0.0
2014-Oct-14 18:20N 29°44' W 095°17'2 2.8
2014-Oct-14 17:30N 29°43' W 095°14'5 5.7
2014-Oct-14 16:33N 29°44' W 095°08'6 6.2
2014-Oct-14 15:34N 29°43' W 095°01'1212.1
2014-Oct-14 14:33N 29°33' W 094°54'1413.9
2014-Oct-14 13:33N 29°21' W 094°46'  

Dump ship's entire track history